Πλησιέστερες Αναφορές METAR

 

LGTS - Thessaloniki/Makedonia-Elev 7m
Distance from station: Ν 13km
Ενημερώθηκε: 15/06/2021 19:50
Μερικώς νεφελώδης
Μερικώς νεφελώδης
 Ανεμος από ΒΒΔ
Ανεμος: ΒΒΔ 24 km/h
Θερμοκρασία: 25°C
Σημείο Δρόσου: 12°C
Υγρασία: 44%
Βαρόμετρο: 1012 hPa
Clouds: Μερικώς νεφελώδης
Visibility: 10 km
Cloud details: Few Clouds 762 m
Μερικώς νεφελώδης 914 m
2021/06/15 16:50 LGTS 151650Z 33013KT 9999 FEW025 SCT030 25/12 Q1012 NOSIG
LGAV - Athens/Elef. Venizelos-Elev 94m
Distance from station: ΝΝΑ 312km
Ενημερώθηκε: 15/06/2021 19:50
Few Clouds
Few Clouds
 Ανεμος από ΒΑ
Ανεμος: ΒΑ 17 km/h
Θερμοκρασία: 21°C
Σημείο Δρόσου: 9°C
Υγρασία: 46%
Βαρόμετρο: 1013 hPa
Clouds: Few Clouds
Visibility: 10 km
Cloud details: Few Clouds 914 m
2021/06/15 16:50 LGAV 151650Z 05009KT 9999 FEW030 21/09 Q1013 NOSIG
 
LGAL - Alexandroupolis-Elev 3m
Distance from station: Α 251km
Ενημερώθηκε: 15/06/2021 19:50
Few Clouds
Few Clouds
 Ανεμος από ΒΔ
Ανεμος: ΒΔ 9 km/h
Θερμοκρασία: 20°C
Σημείο Δρόσου: 12°C
Υγρασία: 60%
Βαρόμετρο: 1011 hPa
Clouds: Few Clouds
Visibility: 10 km
Cloud details: Few Clouds 914 m
2021/06/15 16:50 LGAL 151650Z 32005KT 9999 FEW030 20/12 Q1011
LGKV - Kavala/Crysoupolis-Elev 5m
Distance from station: ΑΒΑ 144km
Ενημερώθηκε: 15/06/2021 19:50
Few Clouds
Few Clouds
 Ανεμος από ΝΔ
Ανεμος: ΝΔ 11 km/h
Θερμοκρασία: 21°C
Σημείο Δρόσου: 12°C
Υγρασία: 57%
Βαρόμετρο: 1011 hPa
Clouds: Few Clouds
Visibility: 10 km
Cloud details: Few Clouds 610 m
2021/06/15 16:50 LGKV 151650Z 23006KT 9999 FEW020 21/12 Q1011
 
LGSK - Skiathos Island-Elev 15m
Distance from station: ΝΝΑ 168km
Ενημερώθηκε: 15/06/2021 17:50
Μη Ενημερωμένο!
Few Clouds
Few Clouds
 Ανεμος από Β
Ανεμος: Β 7 km/h
Θερμοκρασία: 22°C
Σημείο Δρόσου: 13°C
Υγρασία: 57%
Βαρόμετρο: 1013 hPa
Clouds: Few Clouds
Visibility: 10 km
Cloud details: Few Clouds 610 m
2021/06/15 14:50 LGSK 151450Z 01004KT 9999 FEW020 22/13 Q1013
LGLM - Limnos Island-Elev 5m
Distance from station: ΑΝΑ 210km
Ενημερώθηκε: 15/06/2021 19:50
Αίθριος
Αίθριος
 Ανεμος από ΔΒΔ
Ανεμος: ΔΒΔ 4 km/h
Θερμοκρασία: 21°C
Σημείο Δρόσου: 13°C
Υγρασία: 60%
Βαρόμετρο: 1012 hPa
Συνθήκες: Αίθριος
Visibility: greater than 10 km
2021/06/15 16:50 LGLM 151650Z 29002KT CAVOK 21/13 Q1012
 
LGMT - Mitilini Island-Elev 17m
Distance from station: ΑΝΑ 358km
Ενημερώθηκε: 15/06/2021 19:50
Few Clouds
Few Clouds
 Ανεμος από ΒΔ
Ανεμος: ΒΔ 15 km/h
Θερμοκρασία: 22°C
Σημείο Δρόσου: 14°C
Υγρασία: 61%
Βαρόμετρο: 1012 hPa
Clouds: Few Clouds
Visibility: 10 km
Cloud details: Few Clouds 762 m
2021/06/15 16:50 LGMT 151650Z 32008KT 9999 FEW025 22/14 Q1012
LGSY - Skiros Island-Elev 15m
Distance from station: ΝΑ 227km
Ενημερώθηκε: 15/06/2021 19:50
Αίθριος
Αίθριος
 Ανεμος από calm
Ανεμος: Απνοια
Θερμοκρασία: 20°C
Σημείο Δρόσου: 17°C
Υγρασία: 83%
Βαρόμετρο: 1013 hPa
Συνθήκες: Αίθριος
Visibility: greater than 10 km
2021/06/15 16:50 LGSY 151650Z 00000KT CAVOK 20/17 Q1013 RMK FEW080 SCT180 BLU
 
LGKZ - Kozani-Elev 628m
Distance from station: ΔΝΔ 102km
Ενημερώθηκε: 15/06/2021 19:50

 Ανεμος από ΒΔ
Ανεμος: ΒΔ 13 km/h
Θερμοκρασία: 19°C
Σημείο Δρόσου: 2°C
Υγρασία: 32%
Βαρόμετρο: 1015 hPa
2021/06/15 16:50 LGKZ 151650Z AUTO 32007KT 300V030 //// // ////// 19/02 Q1015 RE//
LGIO - Ioannina-Elev 476m
Distance from station: ΔΝΔ 209km
Ενημερώθηκε: 15/06/2021 19:50

 Ανεμος από ΔΒΔ
Ανεμος: ΔΒΔ 7 km/h
Θερμοκρασία: 21°C
Σημείο Δρόσου: 8°C
Υγρασία: 43%
Βαρόμετρο: 1014 hPa
2021/06/15 16:50 LGIO 151650Z AUTO 29004KT //// // ////// 21/08 Q1014 RE//
 
LGZA - Zakinthos-Elev 3m
Distance from station: ΝΝΔ 367km
Ενημερώθηκε: 15/06/2021 19:50
Few Clouds
Few Clouds
 Ανεμος από Β
Ανεμος: Β 17 km/h
Θερμοκρασία: 24°C
Σημείο Δρόσου: 14°C
Υγρασία: 54%
Βαρόμετρο: 1013 hPa
Clouds: Few Clouds
Visibility: 10 km
Cloud details: Few Clouds 549 m
2021/06/15 16:50 LGZA 151650Z 36009KT 9999 FEW018 24/14 Q1013
LGKR - Corfu Island-Elev 2m
Distance from station: ΔΝΔ 282km
Ενημερώθηκε: 15/06/2021 19:50
Few Clouds
Few Clouds
 Ανεμος από ΔΒΔ
Ανεμος: ΔΒΔ 20 km/h
Θερμοκρασία: 24°C
Σημείο Δρόσου: 9°C
Υγρασία: 39%
Βαρόμετρο: 1013 hPa
Clouds: Few Clouds
Visibility: 10 km
Cloud details: Few Clouds 762 m
2021/06/15 16:50 LGKR 151650Z 29011KT 9999 FEW025 24/09 Q1013 NOSIG
 
LGSO - Syros Island-Elev 72m
Distance from station: ΝΝΑ 397km
Ενημερώθηκε: 15/06/2021 19:50
Few Clouds
Few Clouds
 Ανεμος από Β
Ανεμος: Β 20 km/h
Θερμοκρασία: 21°C
Σημείο Δρόσου: 13°C
Υγρασία: 60%
Βαρόμετρο: 1013 hPa
Clouds: Few Clouds
Visibility: 10 km
Cloud details: Few Clouds 549 m
2021/06/15 16:50 LGSO 151650Z 36011KT 9999 FEW018 21/13 Q1013
LGMK - Mikonos Island-Elev 123m
Distance from station: ΝΝΑ 412km
Ενημερώθηκε: 15/06/2021 19:50
Few Clouds
Few Clouds
 Ανεμος από Β
Ανεμος: Β 22 km/h
Θερμοκρασία: 21°C
Σημείο Δρόσου: 12°C
Υγρασία: 57%
Βαρόμετρο: 1012 hPa
Clouds: Few Clouds
Visibility: 10 km
Cloud details: Few Clouds 762 m
2021/06/15 16:50 LGMK 151650Z 36012KT 9999 FEW025 21/12 Q1012
 
LGSR - Santorini Island-Elev 40m
Distance from station: ΝΝΑ 520km
Ενημερώθηκε: 15/06/2021 19:50
Μερικώς νεφελώδης
Μερικώς νεφελώδης
 Ανεμος από Β
Ανεμος: Β 15 km/h
Θερμοκρασία: 23°C
Σημείο Δρόσου: 13°C
Υγρασία: 53%
Βαρόμετρο: 1013 hPa
Clouds: Μερικώς νεφελώδης
Visibility: 10 km
Cloud details: Μερικώς νεφελώδης 610 m
Μερικώς νεφελώδης 1067 m
2021/06/15 16:50 LGSR 151650Z 36008KT 9999 SCT020 SCT035 23/13 Q1013
LGKL - Kalamata-Elev 8m
Distance from station: Ν 405km
Ενημερώθηκε: 15/06/2021 19:50
Μερικώς νεφελώδης
Μερικώς νεφελώδης
 Ανεμος από calm
Ανεμος: Απνοια
Θερμοκρασία: 19°C
Σημείο Δρόσου: 12°C
Υγρασία: 64%
Βαρόμετρο: 1014 hPa
Clouds: Μερικώς νεφελώδης
Visibility: 10 km
Cloud details: Μερικώς νεφελώδης 762 m
2021/06/15 16:50 LGKL 151650Z 00000KT 9999 SCT025 19/12 Q1014
 
LGIR - Iraklion/Crete-Elev 5m
Distance from station: ΝΝΑ 622km
Ενημερώθηκε: 15/06/2021 19:50
Ασθενής βροχή, Σχεδόν νεφελώδης
Ασθενής βροχή, Σχεδόν νεφελώδης
 Ανεμος από varies
Ανεμος: varies 6 km/h
Θερμοκρασία: 21°C
Σημείο Δρόσου: 16°C
Υγρασία: 73%
Βαρόμετρο: 1013 hPa
Συνθήκες: Ασθενής βροχή
Clouds: Σχεδόν νεφελώδης
Visibility: 10 km
Cloud details: Few Clouds 549 m
Σχεδόν νεφελώδης 762 m
Σχεδόν νεφελώδης 2438 m
2021/06/15 16:50 LGIR 151650Z VRB03KT 9999 -RA FEW018TCU BKN025 BKN080 21/16 Q1013 TEMPO RA
LGRP - Rhodes-Elev 5m
Distance from station: ΝΑ 649km
Ενημερώθηκε: 15/06/2021 19:50
Few Clouds
Few Clouds
 Ανεμος από ΔΝΔ
Ανεμος: ΔΝΔ 26 km/h
Θερμοκρασία: 22°C
Σημείο Δρόσου: 15°C
Υγρασία: 65%
Βαρόμετρο: 1010 hPa
Clouds: Few Clouds
Visibility: 10 km
Cloud details: Few Clouds 549 m
2021/06/15 16:50 LGRP 151650Z 25014KT 9999 FEW018 22/15 Q1010 NOSIG
 
LWOH - Ohrid/FYROM-Elev 761m
Distance from station: ΔΒΔ 188km
Ενημερώθηκε: 15/06/2021 20:00
Μερικώς νεφελώδης
Μερικώς νεφελώδης
 Ανεμος από ΒΔ
Ανεμος: ΒΔ 19 km/h
Θερμοκρασία: 20°C
Σημείο Δρόσου: 4°C
Υγρασία: 35%
Βαρόμετρο: 1016 hPa
Clouds: Μερικώς νεφελώδης
Visibility: 10 km
Cloud details: Μερικώς νεφελώδης 1402 m
2021/06/15 17:00 LWOH 151700Z 31010KT 9999 SCT046 20/04 Q1016
LBSF - Sofia/Bulgaria-Elev 595m
Distance from station: Β 227km
Ενημερώθηκε: 15/06/2021 20:00
Συννεφιά
Συννεφιά
 Ανεμος από Δ
Ανεμος: Δ 20 km/h
Θερμοκρασία: 19°C
Σημείο Δρόσου: 9°C
Υγρασία: 52%
Βαρόμετρο: 1014 hPa
Clouds: Συννεφιά
Visibility: 10 km
Cloud details: Few Clouds 1615 m
Σχεδόν νεφελώδης 1890 m
Συννεφιά 2316 m
2021/06/15 17:00 LBSF 151700Z 28011KT 9999 FEW053 BKN062 OVC076 19/09 Q1014 NOSIG
Σημερινά ρεκόρ Μετεωρολογικού Σταθμού
Η Ελάχιστη Θερμοκρασία των 8.5°C ξεπέρασε τη Ελάχιστη Μηνιαία τιμή των 10.5°C που σημειώθηκε στις 14/06/2021 κατά -2°
Η μέγιστη μέση ταχύτητα ανέμου των 92.60 km/h ξεπέρασε τη Μέγιστη Μηνιαία τιμή των 91.86 km/h που σημειώθηκε στις 09/06/2021 κατά 0.73999999999999 km/h
Η ελάχιστη τιμή Αίσθησης Ψύχρας των 8.2°C ξεπέρασε τη Ελάχιστη Μηνιαία τιμή των 10.5°C που σημειώθηκε στις 14/06/2021 κατά -2.3°
Η Ελάχιστη τιμή Σημείου Δρόσου των -19.8°C ξεπέρασε τη Ελάχιστη Μηνιαία τιμή των -16.5°C που σημειώθηκε στις 09/06/2021 κατά -3.3°